createdAt,value
2019-03-19T00:01:56.379Z,95996.52
2019-03-19T00:04:24.759Z,95990.96
2019-03-19T00:06:53.135Z,95998.11
2019-03-19T00:09:21.482Z,95994.80
2019-03-19T00:11:50.726Z,95995.06
2019-03-19T00:14:19.096Z,96003.25
2019-03-19T00:16:47.456Z,95993.52
2019-03-19T00:19:15.876Z,95993.96
2019-03-19T00:21:44.209Z,95998.70
2019-03-19T00:24:12.582Z,95994.25
2019-03-19T00:26:40.928Z,95996.02
2019-03-19T00:29:09.261Z,95998.55
2019-03-19T00:31:37.600Z,95999.22
2019-03-19T00:34:05.961Z,95992.45
2019-03-19T00:36:34.348Z,95992.02
2019-03-19T00:39:02.695Z,95992.10
2019-03-19T00:41:31.053Z,95997.70
2019-03-19T00:43:59.403Z,96003.16
2019-03-19T00:46:27.755Z,96002.30
2019-03-19T00:48:56.173Z,96001.06
2019-03-19T00:51:24.528Z,96003.48
2019-03-19T00:53:52.869Z,96003.25
2019-03-19T00:56:21.207Z,96002.50
2019-03-19T00:58:49.568Z,95995.69
2019-03-19T01:01:17.988Z,95995.37
2019-03-19T01:03:46.393Z,95999.33
2019-03-19T01:06:14.796Z,96004.57
2019-03-19T01:08:43.148Z,96005.13
2019-03-19T01:11:11.485Z,96000.37
2019-03-19T01:13:39.830Z,96000.81
2019-03-19T01:16:08.173Z,96001.50
2019-03-19T01:22:48.414Z,95995.20
2019-03-19T01:25:17.012Z,95991.91
2019-03-19T01:27:45.340Z,95997.48
2019-03-19T01:30:15.601Z,96001.52
2019-03-19T01:32:43.948Z,95997.95
2019-03-19T01:35:12.387Z,95996.00
2019-03-19T01:37:40.768Z,95999.80
2019-03-19T01:40:11.794Z,95997.81
2019-03-19T01:42:40.135Z,95998.53
2019-03-19T01:45:09.299Z,95993.55
2019-03-19T01:47:37.728Z,95990.72
2019-03-19T01:50:06.777Z,95991.19
2019-03-19T01:52:35.169Z,95989.83
2019-03-19T01:55:03.534Z,95995.55
2019-03-19T01:57:32.219Z,95995.25
2019-03-19T02:00:00.635Z,95991.36
2019-03-19T02:02:28.940Z,95989.35
2019-03-19T02:04:57.287Z,95984.66
2019-03-19T02:07:26.585Z,95983.67
2019-03-19T02:09:54.948Z,95989.84
2019-03-19T02:12:23.299Z,95991.80
2019-03-19T02:14:51.648Z,95989.39
2019-03-19T02:17:19.992Z,95988.36
2019-03-19T02:19:48.332Z,95988.20
2019-03-19T02:22:16.681Z,95993.15
2019-03-19T02:24:45.121Z,95992.52
2019-03-19T02:27:13.464Z,95994.22
2019-03-19T02:29:41.842Z,96001.66
2019-03-19T02:32:10.234Z,96001.53
2019-03-19T02:37:13.882Z,96008.83
2019-03-19T02:39:42.272Z,96005.95
2019-03-19T02:42:10.761Z,96010.62
2019-03-19T02:44:39.117Z,96007.43
2019-03-19T02:47:07.465Z,96005.30
2019-03-19T02:49:36.877Z,96006.98
2019-03-19T02:52:05.856Z,96007.09
2019-03-19T02:54:34.302Z,96005.32
2019-03-19T02:57:02.669Z,96008.25
2019-03-19T02:59:31.150Z,96009.30
2019-03-19T03:01:59.487Z,96011.58
2019-03-19T03:04:27.915Z,96008.78
2019-03-19T03:06:56.244Z,96009.19
2019-03-19T03:09:24.608Z,96014.55
2019-03-19T03:11:52.942Z,96019.00
2019-03-19T03:14:21.281Z,96023.05
2019-03-19T03:16:49.633Z,96024.45
2019-03-19T03:19:18.000Z,96024.02
2019-03-19T03:21:46.327Z,96027.20
2019-03-19T03:24:14.661Z,96030.00
2019-03-19T03:26:48.319Z,96032.66
2019-03-19T03:29:11.430Z,96039.11
2019-03-19T03:31:39.818Z,96035.66
2019-03-19T03:34:08.323Z,96035.85
2019-03-19T03:36:36.685Z,96044.33
2019-03-19T03:39:05.065Z,96045.49
2019-03-19T03:41:33.397Z,96043.20
2019-03-19T03:44:01.866Z,96043.59
2019-03-19T03:46:30.190Z,96045.83
2019-03-19T03:48:58.544Z,96050.51
2019-03-19T03:51:26.907Z,96053.96
2019-03-19T03:53:55.348Z,96049.36
2019-03-19T03:56:23.672Z,96045.14
2019-03-19T03:59:00.591Z,96047.97
2019-03-19T04:01:20.385Z,96054.70
2019-03-19T04:03:48.775Z,96049.50
2019-03-19T04:08:54.473Z,96041.19
2019-03-19T04:16:31.276Z,96050.30
2019-03-19T04:18:59.631Z,96050.05
2019-03-19T04:21:27.965Z,96045.17
2019-03-19T04:23:56.363Z,96048.06
2019-03-19T04:26:24.809Z,96056.52
2019-03-19T04:28:53.173Z,96061.80
2019-03-19T04:31:21.510Z,96056.00
2019-03-19T04:33:49.904Z,96049.45
2019-03-19T04:36:18.266Z,96049.95
2019-03-19T04:38:46.611Z,96049.81
2019-03-19T04:46:23.446Z,96060.19
2019-03-19T04:48:51.831Z,96058.66
2019-03-19T04:51:20.244Z,96066.56
2019-03-19T04:53:48.616Z,96068.20
2019-03-19T04:56:16.984Z,96071.52
2019-03-19T04:58:46.218Z,96071.73
2019-03-19T05:01:14.564Z,96076.08
2019-03-19T05:03:42.893Z,96071.42
2019-03-19T05:08:45.536Z,96081.02
2019-03-19T05:11:13.889Z,96079.86
2019-03-19T05:13:42.216Z,96079.89
2019-03-19T05:16:10.605Z,96082.25
2019-03-19T05:18:39.046Z,96086.41
2019-03-19T05:21:07.414Z,96084.96
2019-03-19T05:23:35.766Z,96087.40
2019-03-19T05:26:04.113Z,96087.22
2019-03-19T05:31:06.751Z,96094.52
2019-03-19T05:33:35.081Z,96099.53
2019-03-19T05:36:03.420Z,96095.61
2019-03-19T05:38:32.727Z,96098.87
2019-03-19T05:41:01.101Z,96099.68
2019-03-19T05:43:29.490Z,96107.17
2019-03-19T05:45:57.867Z,96114.95
2019-03-19T05:48:26.289Z,96107.44
2019-03-19T05:53:31.860Z,96113.95
2019-03-19T05:56:00.392Z,96111.20
2019-03-19T05:58:28.753Z,96120.40
2019-03-19T06:00:57.257Z,96127.09
2019-03-19T06:03:25.613Z,96121.08
2019-03-19T06:05:54.054Z,96129.61
2019-03-19T06:08:22.388Z,96141.02
2019-03-19T06:10:50.745Z,96138.79
2019-03-19T06:13:19.293Z,96141.30
2019-03-19T06:15:47.883Z,96146.59
2019-03-19T06:18:16.216Z,96145.00
2019-03-19T06:20:44.637Z,96146.95
2019-03-19T06:23:13.411Z,96149.59
2019-03-19T06:28:16.043Z,96158.48
2019-03-19T06:30:44.367Z,96160.50
2019-03-19T06:33:12.702Z,96163.23
2019-03-19T06:35:42.025Z,96169.27
2019-03-19T06:38:10.387Z,96163.27
2019-03-19T06:40:38.761Z,96168.06
2019-03-19T06:43:07.150Z,96174.20
2019-03-19T06:45:35.532Z,96171.57
2019-03-19T06:48:03.879Z,96170.11
2019-03-19T06:50:32.219Z,96170.89
2019-03-19T06:53:00.551Z,96179.45
2019-03-19T06:55:28.913Z,96188.27
2019-03-19T06:57:57.259Z,96189.73
2019-03-19T07:00:25.596Z,96196.53
2019-03-19T07:02:53.943Z,96200.89
2019-03-19T07:07:56.462Z,96203.55
2019-03-19T07:10:25.735Z,96200.06
2019-03-19T07:12:54.072Z,96200.84
2019-03-19T07:17:56.688Z,96206.66
2019-03-19T07:20:25.917Z,96202.20
2019-03-19T07:22:54.331Z,96205.16
2019-03-19T07:25:22.677Z,96214.11
2019-03-19T07:27:51.011Z,96210.77
2019-03-19T07:30:23.649Z,96211.76
2019-03-19T07:32:52.010Z,96221.22
2019-03-19T07:35:20.339Z,96221.20
2019-03-19T07:40:25.981Z,96221.57
2019-03-19T07:42:54.301Z,96215.13
2019-03-19T07:45:22.649Z,96215.03
2019-03-19T07:47:51.033Z,96221.27
2019-03-19T07:50:20.877Z,96222.26
2019-03-19T07:52:49.251Z,96225.82
2019-03-19T07:55:17.605Z,96227.61
2019-03-19T07:57:46.081Z,96230.28
2019-03-19T08:00:14.407Z,96230.62
2019-03-19T08:02:43.700Z,96227.45
2019-03-19T08:05:12.047Z,96229.84
2019-03-19T08:07:40.389Z,96231.59
2019-03-19T08:12:43.914Z,96235.16
2019-03-19T08:15:13.170Z,96242.05
2019-03-19T08:17:42.946Z,96241.77
2019-03-19T08:20:09.859Z,96235.42
2019-03-19T08:22:38.227Z,96244.22
2019-03-19T08:25:08.786Z,96242.55
2019-03-19T08:27:35.830Z,96242.73
2019-03-19T08:30:04.187Z,96245.09
2019-03-19T08:32:32.559Z,96246.53
2019-03-19T08:35:00.943Z,96248.52
2019-03-19T08:37:29.323Z,96252.95
2019-03-19T08:39:57.668Z,96250.53
2019-03-19T08:45:03.332Z,96256.95
2019-03-19T08:47:31.783Z,96261.34
2019-03-19T08:50:00.134Z,96261.16
2019-03-19T08:52:28.480Z,96263.56
2019-03-19T08:54:56.813Z,96264.47
2019-03-19T08:57:25.148Z,96267.01
2019-03-19T08:59:53.511Z,96265.58
2019-03-19T09:02:23.000Z,96262.97
2019-03-19T09:04:51.420Z,96262.81
2019-03-19T09:09:40.452Z,96258.81
2019-03-19T09:12:08.798Z,96264.31
2019-03-19T09:14:37.147Z,96257.38
2019-03-19T09:17:05.494Z,96266.58
2019-03-19T09:19:33.833Z,96264.39
2019-03-19T09:22:02.188Z,96270.89
2019-03-19T09:24:30.579Z,96263.67
2019-03-19T09:26:58.930Z,96264.61
2019-03-19T09:29:27.268Z,96262.67
2019-03-19T09:31:56.532Z,96253.98
2019-03-19T09:34:24.885Z,96253.28
2019-03-19T09:36:57.620Z,96259.02
2019-03-19T09:39:22.483Z,96251.56
2019-03-19T09:41:50.827Z,96250.61
2019-03-19T09:44:19.181Z,96250.00
2019-03-19T09:46:47.547Z,96255.94
2019-03-19T09:49:15.904Z,96251.91
2019-03-19T09:51:44.244Z,96261.44
2019-03-19T09:54:12.610Z,96258.11
2019-03-19T09:56:40.952Z,96259.40
2019-03-19T09:59:09.310Z,96266.87
2019-03-19T10:01:37.647Z,96268.13
2019-03-19T10:04:05.999Z,96265.31
2019-03-19T10:09:08.651Z,96270.85
2019-03-19T10:11:36.984Z,96273.27
2019-03-19T10:14:05.329Z,96278.16
2019-03-19T10:16:33.680Z,96271.89
2019-03-19T10:19:02.056Z,96262.70
2019-03-19T10:21:30.415Z,96269.29
2019-03-19T10:23:58.739Z,96277.20
2019-03-19T10:26:27.089Z,96280.75
2019-03-19T10:28:55.422Z,96286.96
2019-03-19T10:31:24.076Z,96276.44
2019-03-19T10:33:52.434Z,96278.17
2019-03-19T10:36:20.782Z,96279.58
2019-03-19T10:38:49.229Z,96270.89
2019-03-19T10:41:17.653Z,96268.33
2019-03-19T10:43:46.011Z,96269.33
2019-03-19T10:46:14.960Z,96266.77
2019-03-19T10:48:42.731Z,96263.45
2019-03-19T10:51:11.094Z,96259.27
2019-03-19T10:56:16.800Z,96262.93
2019-03-19T11:01:20.565Z,96263.20
2019-03-19T11:03:49.858Z,96251.67
2019-03-19T11:06:18.217Z,96252.61
2019-03-19T11:08:46.590Z,96253.05
2019-03-19T11:11:14.953Z,96261.00
2019-03-19T11:13:43.285Z,96262.48
2019-03-19T11:16:11.647Z,96268.41
2019-03-19T11:18:40.066Z,96267.65
2019-03-19T11:21:08.380Z,96266.43
2019-03-19T11:23:36.728Z,96271.70
2019-03-19T11:26:05.071Z,96275.84
2019-03-19T11:28:33.560Z,96273.52
2019-03-19T11:31:01.922Z,96272.53
2019-03-19T11:33:30.260Z,96267.20
2019-03-19T11:35:58.613Z,96269.87
2019-03-19T11:38:26.941Z,96277.19
2019-03-19T11:40:55.292Z,96278.45
2019-03-19T11:43:23.652Z,96266.27
2019-03-19T11:45:52.015Z,96257.41
2019-03-19T11:48:20.368Z,96258.34
2019-03-19T11:50:48.759Z,96262.77
2019-03-19T11:53:17.118Z,96261.68
2019-03-19T11:55:45.538Z,96266.98
2019-03-19T12:00:48.451Z,96267.94
2019-03-19T12:03:16.854Z,96270.09
2019-03-19T12:05:45.224Z,96272.91
2019-03-19T12:08:13.585Z,96270.45
2019-03-19T12:10:41.948Z,96259.55
2019-03-19T12:13:10.291Z,96258.48
2019-03-19T12:15:38.879Z,96258.02
2019-03-19T12:18:07.240Z,96257.00
2019-03-19T12:20:35.598Z,96263.17
2019-03-19T12:23:04.144Z,96262.59
2019-03-19T12:28:06.800Z,96276.56
2019-03-19T12:30:35.288Z,96274.75
2019-03-19T12:35:37.981Z,96271.55
2019-03-19T12:38:06.326Z,96273.11
2019-03-19T12:40:37.250Z,96271.19
2019-03-19T12:43:03.090Z,96267.65
2019-03-19T12:45:31.442Z,96270.12
2019-03-19T12:50:34.124Z,96270.46
2019-03-19T12:53:02.523Z,96272.05
2019-03-19T12:58:10.177Z,96268.88
2019-03-19T13:00:38.536Z,96270.46
2019-03-19T13:03:06.897Z,96265.39
2019-03-19T13:05:35.241Z,96264.78
2019-03-19T13:08:03.630Z,96260.14
2019-03-19T13:10:31.969Z,96262.77
2019-03-19T13:13:00.355Z,96260.16
2019-03-19T13:15:28.694Z,96255.32
2019-03-19T13:17:57.057Z,96258.75
2019-03-19T13:22:59.652Z,96252.68
2019-03-19T13:25:28.120Z,96245.86
2019-03-19T13:27:56.449Z,96249.77
2019-03-19T13:30:28.578Z,96247.71
2019-03-19T13:32:56.909Z,96255.30
2019-03-19T13:35:25.262Z,96258.84
2019-03-19T13:37:53.701Z,96264.60
2019-03-19T13:40:22.079Z,96265.13
2019-03-19T13:42:50.460Z,96273.91
2019-03-19T13:45:18.852Z,96278.15
2019-03-19T13:47:47.239Z,96274.58
2019-03-19T13:50:16.369Z,96280.09
2019-03-19T13:52:44.755Z,96281.66
2019-03-19T13:55:15.071Z,96283.66
2019-03-19T13:57:43.490Z,96290.35
2019-03-19T14:00:13.778Z,96289.45
2019-03-19T14:02:42.168Z,96285.49
2019-03-19T14:05:11.435Z,96283.25
2019-03-19T14:07:39.780Z,96279.16
2019-03-19T14:10:12.788Z,96281.53
2019-03-19T14:12:41.139Z,96277.72
2019-03-19T14:17:46.744Z,96282.37
2019-03-19T14:20:17.673Z,96276.78
2019-03-19T14:22:46.024Z,96274.21
2019-03-19T14:27:48.688Z,96272.14
2019-03-19T14:30:17.025Z,96276.05
2019-03-19T14:32:45.384Z,96271.09
2019-03-19T14:35:13.740Z,96266.95
2019-03-19T14:37:42.252Z,96271.39
2019-03-19T14:42:48.828Z,96276.97
2019-03-19T14:45:17.214Z,96284.20
2019-03-19T14:47:45.568Z,96290.00
2019-03-19T14:50:14.677Z,96300.36
2019-03-19T14:52:43.995Z,96293.88
2019-03-19T14:56:22.828Z,96298.95
2019-03-19T14:58:51.172Z,96303.95
2019-03-19T15:01:19.919Z,96300.06
2019-03-19T15:03:47.890Z,96302.78
2019-03-19T15:06:16.220Z,96303.39
2019-03-19T15:08:44.571Z,96307.66
2019-03-19T15:11:12.960Z,96313.59
2019-03-19T15:13:41.361Z,96309.75
2019-03-19T15:16:15.422Z,96315.77
2019-03-19T15:18:44.737Z,96308.84
2019-03-19T15:21:13.080Z,96310.83
2019-03-19T15:23:41.451Z,96311.05
2019-03-19T15:26:09.794Z,96314.72
2019-03-19T15:28:38.156Z,96318.09
2019-03-19T15:31:06.501Z,96314.64
2019-03-19T15:33:34.857Z,96312.30
2019-03-19T15:36:03.205Z,96310.03
2019-03-19T15:38:31.551Z,96314.48
2019-03-19T15:40:59.889Z,96312.69
2019-03-19T15:43:28.245Z,96313.92
2019-03-19T15:48:30.869Z,96322.02
2019-03-19T15:51:00.204Z,96329.06
2019-03-19T15:56:05.919Z,96330.37
2019-03-19T15:58:34.356Z,96331.12
2019-03-19T16:01:02.701Z,96331.16
2019-03-19T16:03:31.044Z,96337.88
2019-03-19T16:05:59.501Z,96341.01
2019-03-19T16:08:27.860Z,96342.07
2019-03-19T16:10:56.247Z,96341.78
2019-03-19T16:13:24.603Z,96351.07
2019-03-19T16:15:52.966Z,96345.69
2019-03-19T16:18:21.292Z,96350.32
2019-03-19T16:20:49.657Z,96353.36
2019-03-19T16:23:18.040Z,96358.83
2019-03-19T16:25:46.414Z,96362.15
2019-03-19T16:28:14.825Z,96366.69
2019-03-19T16:30:43.191Z,96369.49
2019-03-19T16:33:11.544Z,96365.35
2019-03-19T16:35:39.890Z,96369.59
2019-03-19T16:38:08.241Z,96372.20
2019-03-19T16:40:36.636Z,96373.58
2019-03-19T16:43:04.996Z,96376.39
2019-03-19T16:45:33.358Z,96377.74
2019-03-19T16:48:01.694Z,96381.41
2019-03-19T16:50:30.051Z,96381.96
2019-03-19T16:52:58.450Z,96386.22
2019-03-19T16:55:26.960Z,96392.97
2019-03-19T16:57:55.512Z,96392.39
2019-03-19T17:00:25.636Z,96393.66
2019-03-19T17:02:54.035Z,96400.01
2019-03-19T17:05:22.377Z,96402.94
2019-03-19T17:07:50.711Z,96403.70
2019-03-19T17:10:29.073Z,96404.72
2019-03-19T17:12:57.412Z,96417.69
2019-03-19T17:15:26.763Z,96416.55
2019-03-19T17:17:55.182Z,96418.23
2019-03-19T17:20:23.522Z,96428.46
2019-03-19T17:22:51.893Z,96430.75
2019-03-19T17:25:21.736Z,96435.60
2019-03-19T17:27:50.107Z,96436.20
2019-03-19T17:30:33.771Z,96437.28
2019-03-19T17:33:04.104Z,96443.11
2019-03-19T17:35:32.449Z,96446.90
2019-03-19T17:38:00.791Z,96452.05
2019-03-19T17:40:29.162Z,96452.03
2019-03-19T17:42:57.494Z,96457.62
2019-03-19T17:45:25.850Z,96463.17
2019-03-19T17:47:55.129Z,96462.92
2019-03-19T17:50:28.100Z,96467.50
2019-03-19T17:52:56.609Z,96469.38
2019-03-19T17:55:24.826Z,96475.16
2019-03-19T17:57:53.159Z,96473.16
2019-03-19T18:00:21.502Z,96477.13
2019-03-19T18:02:49.866Z,96474.53
2019-03-19T18:05:18.249Z,96480.46
2019-03-19T18:07:46.580Z,96480.45
2019-03-19T18:10:14.962Z,96487.20
2019-03-19T18:12:43.303Z,96489.97
2019-03-19T18:15:12.561Z,96499.91
2019-03-19T18:17:40.924Z,96498.91
2019-03-19T18:22:43.646Z,96506.59
2019-03-19T18:25:14.906Z,96508.79
2019-03-19T18:27:43.296Z,96511.05
2019-03-19T18:30:16.865Z,96512.82
2019-03-19T18:32:45.247Z,96515.58
2019-03-19T18:35:14.626Z,96514.38
2019-03-19T18:37:43.001Z,96526.56
2019-03-19T18:42:46.556Z,96536.59
2019-03-19T18:45:15.800Z,96536.91
2019-03-19T18:47:44.183Z,96534.26
2019-03-19T18:50:22.269Z,96544.79
2019-03-19T18:52:50.664Z,96539.69
2019-03-19T18:55:19.035Z,96542.30
2019-03-19T18:57:47.415Z,96546.03
2019-03-19T19:00:17.338Z,96541.20
2019-03-19T19:02:50.298Z,96545.02
2019-03-19T19:05:15.608Z,96545.66
2019-03-19T19:07:44.001Z,96550.84
2019-03-19T19:10:13.881Z,96554.76
2019-03-19T19:12:42.231Z,96557.78
2019-03-19T19:15:26.985Z,96559.16
2019-03-19T19:17:55.369Z,96556.47
2019-03-19T19:20:23.703Z,96560.47
2019-03-19T19:25:36.290Z,96575.19
2019-03-19T19:28:04.677Z,96573.55
2019-03-19T19:30:33.021Z,96573.75
2019-03-19T19:33:02.518Z,96570.97
2019-03-19T19:35:29.708Z,96575.14
2019-03-19T19:37:58.088Z,96575.32
2019-03-19T19:40:26.486Z,96581.61
2019-03-19T19:42:54.832Z,96586.56
2019-03-19T19:45:23.178Z,96591.45
2019-03-19T19:47:51.578Z,96593.14
2019-03-19T19:50:19.977Z,96592.34
2019-03-19T19:52:49.269Z,96602.88
2019-03-19T19:55:17.705Z,96601.91
2019-03-19T19:57:46.192Z,96601.72
2019-03-19T20:00:19.062Z,96604.59
2019-03-19T20:02:47.449Z,96606.12
2019-03-19T20:05:15.773Z,96603.16
2019-03-19T20:07:44.118Z,96604.67
2019-03-19T20:10:14.785Z,96606.45
2019-03-19T20:12:43.170Z,96610.29
2019-03-19T20:15:11.553Z,96611.17
2019-03-19T20:17:39.892Z,96612.78
2019-03-19T20:20:08.258Z,96614.03
2019-03-19T20:22:36.658Z,96617.52
2019-03-19T20:25:05.014Z,96618.42
2019-03-19T20:27:33.413Z,96617.64
2019-03-19T20:30:01.776Z,96617.25
2019-03-19T20:32:30.122Z,96618.16
2019-03-19T20:34:58.484Z,96618.06
2019-03-19T20:37:26.842Z,96617.40
2019-03-19T20:39:55.212Z,96620.35
2019-03-19T20:42:23.553Z,96626.44
2019-03-19T20:44:52.019Z,96629.55
2019-03-19T20:47:20.345Z,96624.98
2019-03-19T20:49:48.700Z,96627.91
2019-03-19T20:52:17.082Z,96630.06
2019-03-19T20:54:45.521Z,96636.13
2019-03-19T20:57:13.964Z,96640.25
2019-03-19T20:59:42.396Z,96637.39
2019-03-19T21:02:10.798Z,96639.00
2019-03-19T21:04:39.207Z,96645.84
2019-03-19T21:07:07.658Z,96645.88
2019-03-19T21:09:36.149Z,96654.94
2019-03-19T21:12:04.534Z,96647.56
2019-03-19T21:14:33.027Z,96654.86
2019-03-19T21:17:01.375Z,96656.92
2019-03-19T21:19:29.760Z,96657.84
2019-03-19T21:22:00.449Z,96660.83
2019-03-19T21:24:26.622Z,96659.25
2019-03-19T21:26:54.954Z,96656.33
2019-03-19T21:31:57.557Z,96665.61
2019-03-19T21:34:25.939Z,96659.59
2019-03-19T21:36:54.330Z,96664.11
2019-03-19T21:39:22.702Z,96663.72
2019-03-19T21:41:51.094Z,96665.04
2019-03-19T21:44:19.469Z,96664.98
2019-03-19T21:46:47.863Z,96663.00
2019-03-19T21:49:16.246Z,96664.84
2019-03-19T21:51:45.609Z,96677.41
2019-03-19T21:54:13.990Z,96674.89
2019-03-19T21:56:42.376Z,96674.64
2019-03-19T21:59:10.725Z,96675.69
2019-03-19T22:01:39.308Z,96678.34
2019-03-19T22:04:07.665Z,96678.51
2019-03-19T22:06:36.070Z,96679.16
2019-03-19T22:09:04.483Z,96681.84
2019-03-19T22:11:32.849Z,96686.67
2019-03-19T22:14:01.226Z,96688.61
2019-03-19T22:16:29.604Z,96687.41
2019-03-19T22:18:58.087Z,96688.88
2019-03-19T22:21:26.442Z,96687.59
2019-03-19T22:23:54.843Z,96690.06
2019-03-19T22:26:23.177Z,96694.11
2019-03-19T22:28:52.420Z,96694.31
2019-03-19T22:31:22.683Z,96691.02
2019-03-19T22:33:51.071Z,96689.95
2019-03-19T22:36:19.478Z,96681.80
2019-03-19T22:38:47.943Z,96687.14
2019-03-19T22:42:17.357Z,96693.80
2019-03-19T22:44:45.729Z,96693.36
2019-03-19T22:47:14.110Z,96695.56
2019-03-19T22:49:42.581Z,96698.45
2019-03-19T22:54:45.231Z,96706.80
2019-03-19T22:57:13.569Z,96704.31
2019-03-19T22:59:41.921Z,96704.97
2019-03-19T23:02:11.217Z,96709.91
2019-03-19T23:04:39.586Z,96712.12
2019-03-19T23:09:42.168Z,96720.88
2019-03-19T23:12:10.507Z,96717.36
2019-03-19T23:14:38.877Z,96718.20
2019-03-19T23:17:07.263Z,96718.27
2019-03-19T23:19:36.530Z,96714.94
2019-03-19T23:22:04.927Z,96729.83
2019-03-19T23:24:33.257Z,96725.13
2019-03-19T23:27:01.626Z,96722.05
2019-03-19T23:29:30.092Z,96719.34
2019-03-19T23:31:58.583Z,96720.27
2019-03-19T23:34:26.931Z,96724.97
2019-03-19T23:36:55.306Z,96730.64
2019-03-19T23:39:23.709Z,96725.09
2019-03-19T23:41:52.102Z,96723.00
2019-03-19T23:44:20.466Z,96723.42
2019-03-19T23:46:48.814Z,96725.03
2019-03-19T23:49:17.164Z,96731.77
2019-03-19T23:51:45.554Z,96732.27
2019-03-19T23:56:50.124Z,96733.13
2019-03-19T23:59:18.471Z,96730.91
